Time;durP1;ratioP1;P1;durP2;ratioP2;P2;SDS_P1;SDS_P2;PMS_P1;PMS_P2;Temp;Humidity;BMP_temperature;BMP_pressure;BME280_temperature;BME280_humidity;BME280_pressure;Samples;Min_cycle;Max_cycle;Signal;HPM_P1;HPM_P2
2023/10/14 00:00:30;;;;;;;;;;;15.60;99.90;;;;;;5091858;28;19909;-86
2023/10/14 00:03:17;;;;;;;;;;;15.60;99.90;;;;;;5091836;28;19951;-87
2023/10/14 00:05:42;;;;;;;;;;;15.50;99.90;;;;;;5090011;28;19912;-87
2023/10/14 00:08:08;;;;;;;;;;;15.40;99.90;;;;;;5089809;28;19966;-87
2023/10/14 00:10:39;;;;;;;;;;;15.40;99.90;;;;;;5089961;28;20387;-87
2023/10/14 00:13:10;;;;;;;;;;;15.40;99.90;;;;;;5091117;28;19912;-87
2023/10/14 00:15:36;;;;;;;;;;;15.40;99.90;;;;;;5088935;28;19920;-88
2023/10/14 00:18:02;;;;;;;;;;;15.40;99.90;;;;;;5073620;28;19919;-88
2023/10/14 00:20:34;;;;;;;;;;;15.30;99.90;;;;;;5071120;28;20281;-86
2023/10/14 00:23:00;;;;;;;;;;;15.30;99.90;;;;;;5079794;28;20431;-87
2023/10/14 00:25:25;;;;;;;;;;;15.20;99.90;;;;;;5091259;28;20001;-86
2023/10/14 00:27:51;;;;;;;;;;;15.20;99.90;;;;;;5091049;28;20261;-86
2023/10/14 00:30:19;;;;;;;;;;;15.10;99.90;;;;;;5089714;28;19955;-86
2023/10/14 00:32:45;;;;;;;;;;;15.20;99.90;;;;;;5091094;28;19912;-87
2023/10/14 00:35:18;;;;;;;;;;;15.20;99.90;;;;;;5091123;28;19908;-88
2023/10/14 00:37:43;;;;;;;;;;;15.20;99.90;;;;;;5089610;28;20121;-88
2023/10/14 00:40:21;;;;;;;;;;;15.10;99.90;;;;;;5088079;28;20020;-86
2023/10/14 00:42:47;;;;;;;;;;;15.20;99.90;;;;;;5088907;28;19920;-88
2023/10/14 00:45:12;;;;;;;;;;;15.20;99.90;;;;;;5090515;28;20318;-87
2023/10/14 00:47:43;;;;;;;;;;;15.30;99.90;;;;;;5089363;28;19920;-87
2023/10/14 00:50:26;;;;;;;;;;;15.30;99.90;;;;;;5087926;28;20379;-85
2023/10/14 00:52:57;;;;;;;;;;;15.30;99.90;;;;;;5091607;28;19908;-87
2023/10/14 00:55:41;;;;;;;;;;;15.30;99.90;;;;;;5090932;28;19913;-85
2023/10/14 00:58:06;;;;;;;;;;;15.30;99.90;;;;;;5088479;28;19966;-86
2023/10/14 01:00:37;;;;;;;;;;;15.20;99.90;;;;;;5090201;28;19912;-87
2023/10/14 01:03:09;;;;;;;;;;;15.20;99.90;;;;;;5090281;28;19913;-86
2023/10/14 01:05:38;;;;;;;;;;;15.30;99.90;;;;;;5089420;28;19912;-86
2023/10/14 01:08:11;;;;;;;;;;;15.10;99.90;;;;;;5105885;27;19916;-86
2023/10/14 01:10:36;;;;;;;;;;;15.00;99.90;;;;;;5088013;28;19938;-87
2023/10/14 01:13:07;;;;;;;;;;;14.90;99.90;;;;;;5090770;28;20356;-86
2023/10/14 01:15:33;;;;;;;;;;;14.90;99.90;;;;;;5089006;28;20006;-86
2023/10/14 01:18:00;;;;;;;;;;;15.00;99.90;;;;;;5090341;28;20006;-87
2023/10/14 01:20:37;;;;;;;;;;;15.00;99.90;;;;;;5089571;28;19912;-88
2023/10/14 01:23:07;;;;;;;;;;;14.90;99.90;;;;;;5089513;28;19935;-86
2023/10/14 01:25:33;;;;;;;;;;;14.90;99.90;;;;;;5090334;28;20364;-88
2023/10/14 01:27:59;;;;;;;;;;;14.80;99.90;;;;;;5090192;28;19908;-87
2023/10/14 01:30:26;;;;;;;;;;;14.80;99.90;;;;;;5090563;28;20057;-85
2023/10/14 01:32:52;;;;;;;;;;;14.80;99.90;;;;;;5090388;28;20439;-87
2023/10/14 01:37:56;;;;;;;;;;;14.80;99.90;;;;;;5088549;28;19912;-86
2023/10/14 01:42:48;;;;;;;;;;;14.90;99.90;;;;;;5089938;28;19908;-87
2023/10/14 01:45:20;;;;;;;;;;;14.80;99.90;;;;;;5089728;28;20329;-85
2023/10/14 01:47:49;;;;;;;;;;;14.90;99.90;;;;;;5085940;28;19916;-86
2023/10/14 01:50:15;;;;;;;;;;;14.90;99.90;;;;;;5069670;28;19943;-86
2023/10/14 01:52:42;;;;;;;;;;;14.90;99.90;;;;;;5081479;28;20364;-87
2023/10/14 01:55:12;;;;;;;;;;;14.90;99.90;;;;;;5122354;27;20407;-87
2023/10/14 01:57:37;;;;;;;;;;;14.90;99.90;;;;;;5087478;28;19908;-85
2023/10/14 02:00:13;;;;;;;;;;;14.90;99.90;;;;;;5085424;28;19946;-87
2023/10/14 02:02:58;;;;;;;;;;;14.90;99.90;;;;;;5069591;28;19940;-88
2023/10/14 02:05:25;;;;;;;;;;;14.80;99.90;;;;;;5070526;28;19908;-87
2023/10/14 02:07:52;;;;;;;;;;;14.80;99.90;;;;;;5086392;28;19908;-87
2023/10/14 02:10:18;;;;;;;;;;;14.80;99.90;;;;;;5089316;28;20147;-85
2023/10/14 02:12:43;;;;;;;;;;;14.80;99.90;;;;;;5088566;28;20303;-88
2023/10/14 02:15:10;;;;;;;;;;;14.80;99.90;;;;;;5089613;28;19954;-87
2023/10/14 02:17:36;;;;;;;;;;;14.80;99.90;;;;;;5088384;28;19961;-89
2023/10/14 02:20:20;;;;;;;;;;;14.70;99.90;;;;;;5088092;28;19912;-87
2023/10/14 02:22:46;;;;;;;;;;;14.70;99.90;;;;;;5088245;28;20012;-86
2023/10/14 02:25:15;;;;;;;;;;;14.80;99.90;;;;;;5086565;28;19912;-86
2023/10/14 02:27:42;;;;;;;;;;;14.70;99.90;;;;;;5089450;28;19912;-88
2023/10/14 02:30:09;;;;;;;;;;;14.70;99.90;;;;;;5089563;28;19923;-86
2023/10/14 02:32:34;;;;;;;;;;;14.70;99.90;;;;;;5088165;28;19908;-88
2023/10/14 02:35:00;;;;;;;;;;;14.70;99.90;;;;;;5087640;28;19915;-86
2023/10/14 02:37:25;;;;;;;;;;;14.70;99.90;;;;;;5089022;28;19913;-87
2023/10/14 02:39:51;;;;;;;;;;;14.70;99.90;;;;;;5089285;28;19908;-88
2023/10/14 02:42:17;;;;;;;;;;;14.60;99.90;;;;;;5089369;28;19915;-86
2023/10/14 02:44:47;;;;;;;;;;;14.60;99.90;;;;;;5077912;28;20252;-86
2023/10/14 02:47:13;;;;;;;;;;;14.50;99.90;;;;;;5088967;28;19916;-87
2023/10/14 02:49:46;;;;;;;;;;;14.50;99.90;;;;;;5089291;28;19920;-87
2023/10/14 02:52:12;;;;;;;;;;;14.50;99.90;;;;;;5087901;28;19909;-86
2023/10/14 02:54:44;;;;;;;;;;;14.40;99.90;;;;;;5086609;28;19958;-86
2023/10/14 02:57:13;;;;;;;;;;;14.40;99.90;;;;;;5087819;28;19912;-87
2023/10/14 03:04:55;;;;;;;;;;;14.30;99.90;;;;;;5089202;28;19912;-88
2023/10/14 03:07:30;;;;;;;;;;;14.20;99.90;;;;;;5089166;28;20391;-86
2023/10/14 03:10:12;;;;;;;;;;;14.30;99.90;;;;;;5087653;28;19916;-86
2023/10/14 03:12:49;;;;;;;;;;;14.30;99.90;;;;;;5091096;28;20010;-86
2023/10/14 03:15:22;;;;;;;;;;;14.30;99.90;;;;;;5092703;28;19908;-87
2023/10/14 03:17:58;;;;;;;;;;;14.20;99.90;;;;;;5091967;28;20485;-87
2023/10/14 03:22:55;;;;;;;;;;;14.20;99.90;;;;;;5092162;28;20608;-88
2023/10/14 03:25:24;;;;;;;;;;;14.20;99.90;;;;;;5090867;28;19915;-87
2023/10/14 03:30:43;;;;;;;;;;;14.20;99.90;;;;;;5092622;28;19912;-88
2023/10/14 03:33:10;;;;;;;;;;;14.20;99.90;;;;;;5090983;28;20163;-87
2023/10/14 03:35:36;;;;;;;;;;;14.20;99.90;;;;;;5091308;28;19916;-87
2023/10/14 03:38:14;;;;;;;;;;;14.10;99.90;;;;;;5091867;28;20374;-86
2023/10/14 03:43:17;;;;;;;;;;;14.10;99.90;;;;;;5092278;28;19916;-86
2023/10/14 03:45:53;;;;;;;;;;;14.10;99.90;;;;;;5080276;28;19908;-88
2023/10/14 03:48:20;;;;;;;;;;;14.10;99.90;;;;;;5090647;28;20299;-88
2023/10/14 03:50:46;;;;;;;;;;;14.10;99.90;;;;;;5090792;28;19908;-88
2023/10/14 03:53:12;;;;;;;;;;;14.20;99.90;;;;;;5091635;28;19912;-86
2023/10/14 03:55:38;;;;;;;;;;;14.10;99.90;;;;;;5089148;28;19912;-87
2023/10/14 03:58:08;;;;;;;;;;;14.10;99.90;;;;;;5092374;28;19912;-87
2023/10/14 04:00:39;;;;;;;;;;;14.10;99.90;;;;;;5091350;28;19994;-85
2023/10/14 04:03:11;;;;;;;;;;;14.10;99.90;;;;;;5091683;28;19914;-86
2023/10/14 04:05:38;;;;;;;;;;;14.10;99.90;;;;;;5089430;28;19938;-86
2023/10/14 04:08:05;;;;;;;;;;;14.20;99.90;;;;;;5090208;28;20362;-86
2023/10/14 04:10:35;;;;;;;;;;;14.20;99.90;;;;;;5090803;28;19951;-87
2023/10/14 04:13:12;;;;;;;;;;;14.10;99.90;;;;;;5091705;28;20368;-86
2023/10/14 04:15:52;;;;;;;;;;;14.10;99.90;;;;;;5089796;28;19918;-86
2023/10/14 04:18:24;;;;;;;;;;;14.10;99.90;;;;;;5070761;28;19995;-87
2023/10/14 04:21:34;;;;;;;;;;;14.20;99.90;;;;;;5071205;28;19913;-86
2023/10/14 04:23:59;;;;;;;;;;;14.10;99.90;;;;;;5087161;28;19912;-86
2023/10/14 04:26:25;;;;;;;;;;;14.10;99.90;;;;;;5091102;28;19916;-88
2023/10/14 04:28:53;;;;;;;;;;;14.20;99.90;;;;;;5089951;28;19919;-87
2023/10/14 04:31:26;;;;;;;;;;;14.10;99.90;;;;;;5085832;28;19959;-87
2023/10/14 04:33:53;;;;;;;;;;;14.10;99.90;;;;;;5089837;28;19998;-85
2023/10/14 04:36:38;;;;;;;;;;;14.20;99.90;;;;;;5090782;28;20372;-86
2023/10/14 04:39:07;;;;;;;;;;;14.10;99.90;;;;;;5091272;28;20326;-87
2023/10/14 04:41:32;;;;;;;;;;;14.10;99.90;;;;;;5091881;28;19999;-86
2023/10/14 04:44:02;;;;;;;;;;;14.10;99.90;;;;;;5090384;28;20366;-86
2023/10/14 04:46:44;;;;;;;;;;;14.00;99.90;;;;;;5088896;28;19943;-87
2023/10/14 04:49:14;;;;;;;;;;;14.10;99.90;;;;;;5090829;28;19924;-87
2023/10/14 04:51:46;;;;;;;;;;;14.00;99.90;;;;;;5090949;28;19908;-87
2023/10/14 04:54:16;;;;;;;;;;;14.10;99.90;;;;;;5090932;28;19912;-86
2023/10/14 04:56:45;;;;;;;;;;;14.10;99.90;;;;;;5090430;28;19911;-87
2023/10/14 04:59:11;;;;;;;;;;;14.00;99.90;;;;;;5088300;28;20367;-85
2023/10/14 05:01:41;;;;;;;;;;;14.00;99.90;;;;;;5091337;28;19909;-88
2023/10/14 05:04:08;;;;;;;;;;;14.10;99.90;;;;;;5090993;28;19977;-86
2023/10/14 05:06:40;;;;;;;;;;;14.00;99.90;;;;;;5089539;28;20406;-88
2023/10/14 05:09:11;;;;;;;;;;;14.00;99.90;;;;;;5083078;28;20379;-87
2023/10/14 05:11:36;;;;;;;;;;;14.10;99.90;;;;;;5078866;28;19908;-88
2023/10/14 05:14:08;;;;;;;;;;;14.00;99.90;;;;;;5082660;28;19920;-86
2023/10/14 05:16:51;;;;;;;;;;;14.10;99.90;;;;;;5080978;28;19967;-87
2023/10/14 05:19:23;;;;;;;;;;;14.00;99.90;;;;;;5087476;28;19912;-88
2023/10/14 05:21:55;;;;;;;;;;;14.10;99.90;;;;;;5075698;28;19963;-87
2023/10/14 05:24:23;;;;;;;;;;;14.10;99.90;;;;;;5100303;28;19909;-86
2023/10/14 05:26:58;;;;;;;;;;;14.10;99.90;;;;;;5076171;28;19927;-85
2023/10/14 05:29:26;;;;;;;;;;;14.10;99.90;;;;;;5079326;28;19927;-86
2023/10/14 05:31:52;;;;;;;;;;;14.10;99.90;;;;;;5088569;28;19908;-86
2023/10/14 05:34:21;;;;;;;;;;;14.10;99.90;;;;;;5089474;28;20283;-87
2023/10/14 05:36:52;;;;;;;;;;;14.00;99.90;;;;;;5088558;28;19995;-86
2023/10/14 05:39:18;;;;;;;;;;;14.00;99.90;;;;;;5077926;28;19912;-87
2023/10/14 05:41:44;;;;;;;;;;;14.00;99.90;;;;;;5090121;28;19908;-87
2023/10/14 05:44:11;;;;;;;;;;;14.00;99.90;;;;;;5101420;28;19914;-85
2023/10/14 05:46:36;;;;;;;;;;;14.00;99.90;;;;;;5084058;28;19977;-88
2023/10/14 05:49:03;;;;;;;;;;;14.00;99.90;;;;;;5061559;28;19920;-85
2023/10/14 05:51:30;;;;;;;;;;;14.00;99.90;;;;;;5047158;28;20752;-84
2023/10/14 05:53:56;;;;;;;;;;;14.00;99.90;;;;;;5075589;28;19998;-87
2023/10/14 05:56:22;;;;;;;;;;;13.90;99.90;;;;;;5058452;28;20281;-85
2023/10/14 05:58:48;;;;;;;;;;;14.00;99.90;;;;;;5069424;28;19909;-85
2023/10/14 06:01:16;;;;;;;;;;;14.00;99.90;;;;;;5067977;28;19934;-86
2023/10/14 06:03:42;;;;;;;;;;;14.00;99.90;;;;;;5051989;28;19992;-86
2023/10/14 06:06:09;;;;;;;;;;;13.90;99.90;;;;;;5080775;28;20003;-85
2023/10/14 06:08:38;;;;;;;;;;;13.80;99.90;;;;;;5071566;28;19916;-86
2023/10/14 06:11:05;;;;;;;;;;;13.80;99.90;;;;;;5085463;28;19924;-85
2023/10/14 06:13:34;;;;;;;;;;;13.80;99.90;;;;;;5070166;28;20261;-84
2023/10/14 06:16:04;;;;;;;;;;;13.80;99.90;;;;;;5068584;28;20067;-87
2023/10/14 06:18:32;;;;;;;;;;;13.80;99.90;;;;;;5088692;28;19919;-84
2023/10/14 06:20:59;;;;;;;;;;;13.70;99.90;;;;;;5052737;28;19957;-86
2023/10/14 06:23:26;;;;;;;;;;;13.70;99.90;;;;;;5051491;28;19909;-85
2023/10/14 06:25:55;;;;;;;;;;;13.70;99.90;;;;;;5069519;28;19919;-84
2023/10/14 06:28:21;;;;;;;;;;;13.80;99.90;;;;;;5068255;28;19917;-90
2023/10/14 06:30:46;;;;;;;;;;;13.80;99.90;;;;;;5069321;28;19916;-87
2023/10/14 06:33:12;;;;;;;;;;;13.70;99.90;;;;;;5052377;28;19913;-85
2023/10/14 06:35:43;;;;;;;;;;;13.80;99.90;;;;;;5052122;28;20012;-86
2023/10/14 06:38:10;;;;;;;;;;;13.70;99.90;;;;;;5071399;28;19912;-88
2023/10/14 06:40:35;;;;;;;;;;;13.80;99.90;;;;;;5051169;28;19908;-86
2023/10/14 06:43:09;;;;;;;;;;;13.70;99.90;;;;;;5076037;28;20022;-85
2023/10/14 06:45:35;;;;;;;;;;;13.70;99.90;;;;;;5047695;28;19920;-83
2023/10/14 06:48:03;;;;;;;;;;;13.70;99.90;;;;;;5075133;28;19970;-85
2023/10/14 06:50:30;;;;;;;;;;;13.70;99.90;;;;;;5093180;28;19912;-87
2023/10/14 06:53:07;;;;;;;;;;;13.70;99.90;;;;;;5093058;28;19908;-87
2023/10/14 06:55:39;;;;;;;;;;;13.70;99.90;;;;;;5078141;28;20114;-86
2023/10/14 06:58:08;;;;;;;;;;;13.70;99.90;;;;;;5080888;28;20489;-86
2023/10/14 07:00:37;;;;;;;;;;;13.70;99.90;;;;;;5090172;28;19970;-85
2023/10/14 07:03:03;;;;;;;;;;;13.80;99.90;;;;;;5090041;28;19912;-86
2023/10/14 07:05:29;;;;;;;;;;;13.70;99.90;;;;;;5090259;28;19912;-87
2023/10/14 07:07:57;;;;;;;;;;;13.70;99.90;;;;;;5091692;28;19908;-86
2023/10/14 07:10:27;;;;;;;;;;;13.80;99.90;;;;;;5091557;28;19967;-86
2023/10/14 07:13:00;;;;;;;;;;;13.80;99.90;;;;;;5090731;28;19908;-87
2023/10/14 07:15:32;;;;;;;;;;;13.80;99.90;;;;;;5087666;28;19995;-86
2023/10/14 07:17:58;;;;;;;;;;;13.80;99.90;;;;;;5087023;28;20296;-85
2023/10/14 07:20:25;;;;;;;;;;;13.80;99.90;;;;;;5092009;28;19908;-86
2023/10/14 07:22:50;;;;;;;;;;;13.90;99.90;;;;;;5091489;28;19912;-87
2023/10/14 07:25:18;;;;;;;;;;;13.90;99.90;;;;;;5090729;28;19920;-86
2023/10/14 07:27:44;;;;;;;;;;;13.90;99.90;;;;;;5092555;28;19923;-84
2023/10/14 07:30:15;;;;;;;;;;;13.90;99.90;;;;;;5092211;28;19923;-85
2023/10/14 07:32:42;;;;;;;;;;;13.90;99.90;;;;;;5091096;28;19908;-85
2023/10/14 07:35:11;;;;;;;;;;;14.00;99.90;;;;;;5088879;28;19912;-86
2023/10/14 07:37:38;;;;;;;;;;;14.00;99.90;;;;;;5091705;28;19995;-86
2023/10/14 07:40:11;;;;;;;;;;;14.00;99.90;;;;;;5092174;28;19941;-85
2023/10/14 07:42:39;;;;;;;;;;;14.00;99.90;;;;;;5090622;28;19919;-85
2023/10/14 07:45:10;;;;;;;;;;;14.10;99.90;;;;;;5090290;28;20186;-85
2023/10/14 07:47:37;;;;;;;;;;;14.10;99.90;;;;;;5091818;28;20116;-86
2023/10/14 07:50:09;;;;;;;;;;;14.20;99.90;;;;;;5091984;28;19970;-83
2023/10/14 07:52:35;;;;;;;;;;;14.10;99.90;;;;;;5091751;28;19908;-84
2023/10/14 07:55:02;;;;;;;;;;;14.20;99.90;;;;;;5091934;28;20011;-87
2023/10/14 07:57:27;;;;;;;;;;;14.20;99.90;;;;;;5089944;28;19908;-85
2023/10/14 07:59:59;;;;;;;;;;;14.30;99.90;;;;;;5089505;28;19912;-88
2023/10/14 08:02:26;;;;;;;;;;;14.30;99.90;;;;;;5071667;28;19908;-85
2023/10/14 08:04:53;;;;;;;;;;;14.30;99.90;;;;;;5071491;28;19908;-84
2023/10/14 08:07:22;;;;;;;;;;;14.30;99.90;;;;;;5108689;27;19949;-85
2023/10/14 08:09:48;;;;;;;;;;;14.40;99.90;;;;;;5091514;28;19917;-84
2023/10/14 08:12:14;;;;;;;;;;;14.50;99.90;;;;;;5090772;28;19920;-84
2023/10/14 08:14:40;;;;;;;;;;;14.50;99.90;;;;;;5086063;28;20011;-84
2023/10/14 08:17:11;;;;;;;;;;;14.50;99.90;;;;;;5077940;28;20357;-84
2023/10/14 08:19:37;;;;;;;;;;;14.50;99.90;;;;;;5082067;28;20313;-83
2023/10/14 08:22:05;;;;;;;;;;;14.40;99.90;;;;;;5086505;28;19920;-83
2023/10/14 08:24:30;;;;;;;;;;;14.50;99.90;;;;;;5095871;28;19920;-83
2023/10/14 08:26:56;;;;;;;;;;;14.40;99.90;;;;;;5095493;28;19912;-85
2023/10/14 08:29:21;;;;;;;;;;;14.40;99.90;;;;;;5091173;28;19945;-82
2023/10/14 08:31:51;;;;;;;;;;;14.40;99.90;;;;;;5093188;28;19919;-83
2023/10/14 08:34:17;;;;;;;;;;;14.40;99.90;;;;;;5089950;28;19998;-84
2023/10/14 08:36:43;;;;;;;;;;;14.50;99.90;;;;;;5090530;28;19919;-83
2023/10/14 08:39:09;;;;;;;;;;;14.50;99.90;;;;;;5090694;28;19915;-83
2023/10/14 08:41:36;;;;;;;;;;;14.60;99.90;;;;;;5092444;28;20407;-83
2023/10/14 08:44:08;;;;;;;;;;;14.60;99.90;;;;;;5088918;28;20002;-83
2023/10/14 08:46:35;;;;;;;;;;;14.70;99.90;;;;;;5087970;28;19912;-84
2023/10/14 08:49:03;;;;;;;;;;;14.70;99.90;;;;;;5073869;28;20296;-83
2023/10/14 08:51:29;;;;;;;;;;;14.70;99.90;;;;;;5057079;28;20433;-84
2023/10/14 08:53:56;;;;;;;;;;;14.80;99.90;;;;;;5073847;28;19908;-85
2023/10/14 08:56:22;;;;;;;;;;;14.90;99.90;;;;;;5072709;28;19952;-87
2023/10/14 08:58:49;;;;;;;;;;;14.90;99.90;;;;;;5075797;28;20011;-83
2023/10/14 09:01:16;;;;;;;;;;;15.00;99.90;;;;;;5074920;28;19954;-84
2023/10/14 09:03:49;;;;;;;;;;;15.00;99.90;;;;;;5070934;28;19916;-86
2023/10/14 09:06:16;;;;;;;;;;;15.00;99.90;;;;;;5071057;28;20003;-86
2023/10/14 09:08:44;;;;;;;;;;;15.10;99.90;;;;;;5074040;28;20387;-86
2023/10/14 09:11:26;;;;;;;;;;;15.10;99.90;;;;;;5055742;28;19908;-87
2023/10/14 09:14:00;;;;;;;;;;;15.10;99.90;;;;;;5051708;28;22110;-82
2023/10/14 09:16:26;;;;;;;;;;;15.10;99.90;;;;;;5052010;28;19987;-86
2023/10/14 09:19:01;;;;;;;;;;;15.10;99.90;;;;;;5077382;28;19958;-83
2023/10/14 09:21:28;;;;;;;;;;;15.20;99.90;;;;;;5052501;28;19912;-82
2023/10/14 09:23:53;;;;;;;;;;;15.30;99.90;;;;;;5070775;28;19915;-82
2023/10/14 09:26:20;;;;;;;;;;;15.40;99.90;;;;;;5075031;28;20361;-83
2023/10/14 09:28:48;;;;;;;;;;;15.40;99.90;;;;;;5075774;28;19916;-83
2023/10/14 09:31:13;;;;;;;;;;;15.60;99.90;;;;;;5069594;28;19917;-88
2023/10/14 09:33:43;;;;;;;;;;;15.70;99.90;;;;;;5076073;28;20663;-85
2023/10/14 09:36:18;;;;;;;;;;;15.90;99.90;;;;;;5079561;28;20225;-84
2023/10/14 09:38:48;;;;;;;;;;;16.10;99.90;;;;;;5065172;28;19919;-86
2023/10/14 09:41:15;;;;;;;;;;;16.20;99.90;;;;;;5051699;28;19916;-86
2023/10/14 09:43:46;;;;;;;;;;;16.30;99.90;;;;;;5068809;28;19920;-88
2023/10/14 09:46:12;;;;;;;;;;;16.40;99.90;;;;;;5072309;28;19908;-86
2023/10/14 09:48:38;;;;;;;;;;;16.20;99.90;;;;;;5084619;28;19920;-85
2023/10/14 09:51:04;;;;;;;;;;;16.20;99.90;;;;;;5088193;28;19912;-87
2023/10/14 09:53:34;;;;;;;;;;;16.20;99.90;;;;;;5088804;28;20375;-87
2023/10/14 09:56:10;;;;;;;;;;;16.20;99.90;;;;;;5085881;28;19955;-83
2023/10/14 09:58:41;;;;;;;;;;;16.20;99.90;;;;;;5072214;28;19908;-83
2023/10/14 10:01:07;;;;;;;;;;;16.00;99.90;;;;;;5092151;28;19908;-84
2023/10/14 10:03:38;;;;;;;;;;;16.10;99.90;;;;;;5089062;28;19995;-84
2023/10/14 10:06:22;;;;;;;;;;;16.20;99.90;;;;;;5088632;28;19920;-85
2023/10/14 10:09:06;;;;;;;;;;;16.30;99.90;;;;;;5089227;28;19916;-85
2023/10/14 10:11:33;;;;;;;;;;;16.20;99.90;;;;;;5085016;28;19912;-90
2023/10/14 10:14:02;;;;;;;;;;;16.20;99.90;;;;;;5089382;28;19908;-86
2023/10/14 10:16:31;;;;;;;;;;;16.30;99.90;;;;;;5086372;28;20345;-83
2023/10/14 10:18:58;;;;;;;;;;;16.40;99.90;;;;;;5081009;28;19985;-84
2023/10/14 10:21:34;;;;;;;;;;;16.40;99.90;;;;;;5090224;28;19912;-83
2023/10/14 10:24:02;;;;;;;;;;;16.50;99.90;;;;;;5092928;28;19912;-83
2023/10/14 10:26:48;;;;;;;;;;;16.60;99.90;;;;;;5093314;28;19914;-83
2023/10/14 10:29:21;;;;;;;;;;;16.60;99.90;;;;;;5090810;28;19916;-88
2023/10/14 10:32:04;;;;;;;;;;;16.50;99.90;;;;;;5092208;28;19912;-84
2023/10/14 10:34:33;;;;;;;;;;;16.50;99.90;;;;;;5091793;28;19908;-83
2023/10/14 10:36:59;;;;;;;;;;;16.60;99.90;;;;;;5091476;28;19912;-89
2023/10/14 10:39:24;;;;;;;;;;;16.50;99.90;;;;;;5100528;28;19916;-87
2023/10/14 10:41:51;;;;;;;;;;;16.50;99.90;;;;;;5094061;28;19918;-88
2023/10/14 10:44:18;;;;;;;;;;;16.60;99.90;;;;;;5093417;28;19908;-86
2023/10/14 10:46:53;;;;;;;;;;;16.40;99.90;;;;;;5092096;28;19912;-86
2023/10/14 10:49:38;;;;;;;;;;;16.40;99.90;;;;;;5094198;28;19916;-85
2023/10/14 10:52:07;;;;;;;;;;;16.40;99.90;;;;;;5091380;28;19915;-84
2023/10/14 10:54:33;;;;;;;;;;;16.50;99.90;;;;;;5091671;28;20299;-84
2023/10/14 10:57:00;;;;;;;;;;;16.50;99.90;;;;;;5092718;28;20376;-85
2023/10/14 10:59:26;;;;;;;;;;;16.50;99.90;;;;;;5092938;28;19961;-84
2023/10/14 11:01:54;;;;;;;;;;;16.50;99.90;;;;;;5093392;28;19994;-83
2023/10/14 11:04:19;;;;;;;;;;;16.40;99.90;;;;;;5093514;28;19909;-84
2023/10/14 11:06:45;;;;;;;;;;;16.40;99.90;;;;;;5091282;28;19958;-84
2023/10/14 11:09:12;;;;;;;;;;;16.60;99.90;;;;;;5091319;28;19920;-84
2023/10/14 11:11:38;;;;;;;;;;;16.70;99.90;;;;;;5092643;28;19909;-86
2023/10/14 11:14:15;;;;;;;;;;;16.70;99.90;;;;;;5091347;28;20019;-84
2023/10/14 11:16:44;;;;;;;;;;;16.80;99.90;;;;;;5091280;28;20330;-86
2023/10/14 11:19:10;;;;;;;;;;;16.80;99.90;;;;;;5091110;28;20277;-86
2023/10/14 11:21:37;;;;;;;;;;;16.80;99.90;;;;;;5092426;28;19931;-84
2023/10/14 11:24:08;;;;;;;;;;;16.80;99.90;;;;;;5092457;28;19908;-84
2023/10/14 11:26:34;;;;;;;;;;;;;;;;;;5091028;28;19908;-90
2023/10/14 11:29:00;;;;;;;;;;;;;;;;;;5092493;28;20003;-88
2023/10/14 11:31:25;;;;;;;;;;;16.90;99.90;;;;;;5092604;28;19908;-88
2023/10/14 11:33:55;;;;;;;;;;;16.80;99.90;;;;;;5091521;28;19946;-85
2023/10/14 11:36:24;;;;;;;;;;;17.10;99.90;;;;;;5091904;28;19912;-85
2023/10/14 11:38:50;;;;;;;;;;;17.10;99.90;;;;;;5092442;28;19908;-85
2023/10/14 11:41:16;;;;;;;;;;;17.10;99.90;;;;;;5091061;28;20265;-85
2023/10/14 11:43:43;;;;;;;;;;;17.30;99.90;;;;;;5092295;28;19958;-84
2023/10/14 11:46:10;;;;;;;;;;;17.30;99.90;;;;;;5091268;28;19987;-86
2023/10/14 11:48:37;;;;;;;;;;;17.30;99.90;;;;;;5092040;28;19916;-84
2023/10/14 11:51:03;;;;;;;;;;;17.30;99.90;;;;;;5092337;28;19916;-87
2023/10/14 11:53:30;;;;;;;;;;;17.20;99.90;;;;;;5092358;28;19916;-87
2023/10/14 11:55:59;;;;;;;;;;;17.40;99.90;;;;;;5091486;28;19931;-85
2023/10/14 11:58:26;;;;;;;;;;;17.30;99.90;;;;;;5093537;28;20333;-86
2023/10/14 12:00:51;;;;;;;;;;;17.70;99.90;;;;;;5093586;28;20002;-87
2023/10/14 12:03:17;;;;;;;;;;;17.70;99.90;;;;;;5092896;28;20402;-86
2023/10/14 12:05:42;;;;;;;;;;;17.50;99.90;;;;;;5093099;28;19909;-84
2023/10/14 12:08:08;;;;;;;;;;;17.30;99.90;;;;;;5092015;28;20300;-85
2023/10/14 12:10:34;;;;;;;;;;;17.30;99.90;;;;;;5092726;28;19912;-88
2023/10/14 12:12:59;;;;;;;;;;;17.40;99.90;;;;;;5091280;28;19908;-88
2023/10/14 12:15:25;;;;;;;;;;;17.50;99.90;;;;;;5093362;28;19908;-89
2023/10/14 12:17:50;;;;;;;;;;;17.40;99.90;;;;;;5091936;28;19946;-90
2023/10/14 12:20:16;;;;;;;;;;;17.50;99.90;;;;;;5091308;28;20321;-85
2023/10/14 12:22:41;;;;;;;;;;;17.80;99.90;;;;;;5091821;28;19999;-88
2023/10/14 12:25:07;;;;;;;;;;;17.50;99.90;;;;;;5095504;28;20012;-89
2023/10/14 12:27:34;;;;;;;;;;;17.60;99.90;;;;;;5084017;28;20384;-85
2023/10/14 12:30:00;;;;;;;;;;;17.60;99.90;;;;;;5091068;28;19920;-85
2023/10/14 12:32:26;;;;;;;;;;;;;;;;;;5110116;28;19908;-84
2023/10/14 12:34:52;;;;;;;;;;;;;;;;;;5086495;28;19935;-87
2023/10/14 12:37:19;;;;;;;;;;;;;;;;;;5090061;28;20313;-86
2023/10/14 12:39:48;;;;;;;;;;;;;;;;;;5090748;28;20411;-86
2023/10/14 12:42:16;;;;;;;;;;;;;;;;;;5092098;28;19916;-86
2023/10/14 12:44:42;;;;;;;;;;;;;;;;;;5091010;28;19955;-85
2023/10/14 12:47:11;;;;;;;;;;;;;;;;;;5090529;28;19919;-87
2023/10/14 12:49:37;;;;;;;;;;;;;;;;;;5091167;28;20010;-87
2023/10/14 12:52:08;;;;;;;;;;;;;;;;;;5087725;28;19912;-83
2023/10/14 12:54:34;;;;;;;;;;;;;;;;;;5089591;28;20011;-86
2023/10/14 12:57:03;;;;;;;;;;;;;;;;;;5090575;28;20320;-86
2023/10/14 12:59:29;;;;;;;;;;;;;;;;;;5090112;28;20379;-86
2023/10/14 13:02:00;;;;;;;;;;;;;;;;;;5091256;28;19919;-84
2023/10/14 13:04:27;;;;;;;;;;;;;;;;;;5091026;28;19912;-84
2023/10/14 13:06:53;;;;;;;;;;;;;;;;;;5090422;28;19912;-89
2023/10/14 13:09:19;;;;;;;;;;;;;;;;;;5090495;28;20497;-84
2023/10/14 13:11:45;;;;;;;;;;;;;;;;;;5080445;28;19920;-85
2023/10/14 13:14:11;;;;;;;;;;;;;;;;;;5089161;28;19908;-86
2023/10/14 13:16:37;;;;;;;;;;;;;;;;;;5089343;28;20401;-88
2023/10/14 13:19:03;;;;;;;;;;;;;;;;;;5088747;28;20348;-89
2023/10/14 13:21:29;;;;;;;;;;;;;;;;;;5090155;28;19919;-84
2023/10/14 13:23:55;;;;;;;;;;;;;;;;;;5089854;28;19908;-85
2023/10/14 13:26:21;;;;;;;;;;;;;;;;;;5088196;28;19916;-85
2023/10/14 13:28:50;;;;;;;;;;;;;;;;;;5088879;28;19919;-84
2023/10/14 13:31:16;;;;;;;;;;;;;;;;;;5086784;28;19955;-86
2023/10/14 13:33:44;;;;;;;;;;;;;;;;;;5089685;28;19916;-85
2023/10/14 13:36:10;;;;;;;;;;;;;;;;;;5089945;28;19955;-84
2023/10/14 13:38:39;;;;;;;;;;;;;;;;;;5090007;28;19923;-88
2023/10/14 13:41:05;;;;;;;;;;;;;;;;;;5088400;28;19908;-89
2023/10/14 13:43:31;;;;;;;;;;;;;;;;;;5089819;28;20253;-85
2023/10/14 13:45:57;;;;;;;;;;;;;;;;;;5085057;28;19912;-85
2023/10/14 13:48:24;;;;;;;;;;;;;;;;;;5069740;28;20299;-85
2023/10/14 13:50:54;;;;;;;;;;;;;;;;;;5069810;28;20360;-86
2023/10/14 13:53:21;;;;;;;;;;;;;;;;;;5087363;28;19912;-87
2023/10/14 13:55:53;;;;;;;;;;;;;;;;;;5087722;28;20291;-89
2023/10/14 13:58:19;;;;;;;;;;;;;;;;;;5088316;28;19927;-86
2023/10/14 14:00:49;;;;;;;;;;;;;;;;;;5089483;28;19908;-88
2023/10/14 14:03:15;;;;;;;;;;;;;;;;;;5088244;28;19912;-90
2023/10/14 14:05:41;;;;;;;;;;;;;;;;;;5088793;28;20410;-88
2023/10/14 14:08:07;;;;;;;;;;;;;;;;;;5086925;28;19962;-84
2023/10/14 14:10:33;;;;;;;;;;;;;;;;;;5087723;28;20407;-85
2023/10/14 14:12:59;;;;;;;;;;;;;;;;;;5090169;28;19912;-83
2023/10/14 14:15:27;;;;;;;;;;;;;;;;;;5088085;28;19919;-86
2023/10/14 14:17:54;;;;;;;;;;;;;;;;;;5089350;28;20007;-86
2023/10/14 14:20:20;;;;;;;;;;;;;;;;;;5089153;28;19956;-84
2023/10/14 14:22:46;;;;;;;;;;;;;;;;;;5089353;28;19959;-84
2023/10/14 14:25:12;;;;;;;;;;;;;;;;;;5089599;28;19916;-84
2023/10/14 14:27:38;;;;;;;;;;;;;;;;;;5087110;28;19912;-88
2023/10/14 14:30:07;;;;;;;;;;;;;;;;;;5089646;28;20011;-84
2023/10/14 14:32:36;;;;;;;;;;;;;;;;;;5090280;28;19908;-84
2023/10/14 14:35:02;;;;;;;;;;;;;;;;;;5088465;28;19913;-84
2023/10/14 14:37:32;;;;;;;;;;;;;;;;;;5088086;28;19961;-85
2023/10/14 14:39:58;;;;;;;;;;;;;;;;;;5089549;28;19908;-85
2023/10/14 14:42:26;;;;;;;;;;;;;;;;;;5088047;28;20117;-85
2023/10/14 14:44:53;;;;;;;;;;;;;;;;;;5086779;28;19912;-83
2023/10/14 14:47:19;;;;;;;;;;;;;;;;;;5089075;28;19920;-84
2023/10/14 14:49:45;;;;;;;;;;;;;;;;;;5089102;28;20013;-84
2023/10/14 14:52:11;;;;;;;;;;;;;;;;;;5089251;28;19961;-85
2023/10/14 14:54:40;;;;;;;;;;;;;;;;;;5087654;28;19913;-86
2023/10/14 14:57:06;;;;;;;;;;;;;;;;;;5086750;28;19938;-83
2023/10/14 14:59:32;;;;;;;;;;;;;;;;;;5088473;28;19979;-84
2023/10/14 15:02:01;;;;;;;;;;;;;;;;;;5086760;28;19916;-84
2023/10/14 15:04:27;;;;;;;;;;;;;;;;;;5089040;28;19934;-83
2023/10/14 15:06:55;;;;;;;;;;;;;;;;;;5088982;28;19913;-86